Hooper, Nebraska
Current Conditions -  °F | °C
As of 4:35 AM on Thursday 18 Dec 2014 (Local Time) from KFET Reporting Station
Overcast Overcast  
Wind Chill: 28°   Ceiling: 4700
Heat Index: 28°   Visibility: 10mi
Dew Point: 23°   Wind: 3mph
Humidity: 80%   Direction: 90°E
Pressure: 30.21"   Gusts: NA
Location:  41.61°N, 96.55°W
Report Text: KFET 181035Z AUTO 09003KT 10SM BKN047 OVC060 M02/M05 A3021 RMK AO2 T10221052
Loading
Personal Weather Stations






























Interactive Weather Map New forecast layout! Learn more

10-Day Weather Forecast

Advertisements
Track Severe Weather on mobile